Time;durP1;ratioP1;P1;durP2;ratioP2;P2;SDS_P1;SDS_P2;PMS_P1;PMS_P2;Temp;Humidity;BMP_temperature;BMP_pressure;BME280_temperature;BME280_humidity;BME280_pressure;Samples;Min_cycle;Max_cycle;Signal;HPM_P1;HPM_P2
2022/08/07 00:01:26;;;;;;;6.80;4.27;;;17.30;70.00;;;;;;5050747;28;20464;-47
2022/08/07 00:03:53;;;;;;;5.40;3.23;;;17.30;70.40;;;;;;5051185;28;20441;-47
2022/08/07 00:06:20;;;;;;;5.63;3.20;;;17.30;70.20;;;;;;5033408;28;20448;-45
2022/08/07 00:08:47;;;;;;;6.33;3.37;;;17.30;70.20;;;;;;5050836;28;20919;-45
2022/08/07 00:11:14;;;;;;;4.70;3.10;;;17.30;70.30;;;;;;5033364;28;20477;-46
2022/08/07 00:13:43;;;;;;;5.97;2.83;;;17.20;70.40;;;;;;5051984;28;20446;-46
2022/08/07 00:16:10;;;;;;;3.60;2.87;;;17.20;70.50;;;;;;5054769;28;20496;-46
2022/08/07 00:18:37;;;;;;;5.13;3.20;;;17.20;70.70;;;;;;5054338;28;20548;-45
2022/08/07 00:21:06;;;;;;;5.07;2.70;;;17.10;70.70;;;;;;5054947;28;20464;-45
2022/08/07 00:23:35;;;;;;;4.07;3.10;;;17.10;70.90;;;;;;5054696;28;20758;-46
2022/08/07 00:26:04;;;;;;;7.80;3.00;;;17.10;71.00;;;;;;5054987;28;20853;-45
2022/08/07 00:28:32;;;;;;;4.10;2.90;;;17.10;71.10;;;;;;5054237;28;20431;-46
2022/08/07 00:31:02;;;;;;;7.80;3.10;;;17.10;71.40;;;;;;5054314;28;20456;-47
2022/08/07 00:33:29;;;;;;;4.70;2.93;;;17.10;71.40;;;;;;5054659;28;21028;-45
2022/08/07 00:35:56;;;;;;;5.07;3.20;;;16.90;71.30;;;;;;5054557;28;20505;-47
2022/08/07 00:38:23;;;;;;;6.10;3.20;;;17.00;71.60;;;;;;5054228;28;20801;-45
2022/08/07 00:40:50;;;;;;;3.50;2.73;;;17.00;71.60;;;;;;5054167;28;20462;-45
2022/08/07 00:43:17;;;;;;;8.20;4.70;;;16.90;71.60;;;;;;5054223;28;20443;-46
2022/08/07 00:45:44;;;;;;;6.10;3.27;;;17.00;71.80;;;;;;5054218;28;20789;-45
2022/08/07 00:48:12;;;;;;;4.80;3.00;;;17.00;72.00;;;;;;5054237;28;20469;-47
2022/08/07 00:50:39;;;;;;;3.67;2.83;;;17.00;72.00;;;;;;5053624;28;20545;-45
2022/08/07 00:53:06;;;;;;;4.30;3.00;;;16.90;71.90;;;;;;5054076;28;20431;-46
2022/08/07 00:55:33;;;;;;;6.60;3.57;;;16.90;71.90;;;;;;5036372;28;20470;-45
2022/08/07 00:58:00;;;;;;;3.97;3.33;;;17.10;72.40;;;;;;5054167;28;20911;-45
2022/08/07 01:00:27;;;;;;;4.53;3.43;;;16.90;72.20;;;;;;5035770;28;20471;-46
2022/08/07 01:02:54;;;;;;;4.40;3.40;;;16.80;72.30;;;;;;5055205;28;20431;-46
2022/08/07 01:05:23;;;;;;;4.37;3.60;;;16.90;72.70;;;;;;5055345;28;20917;-46
2022/08/07 01:08:08;;;;;;;5.47;3.33;;;16.90;72.80;;;;;;5038268;28;20447;-45
2022/08/07 01:10:37;;;;;;;5.93;3.33;;;16.80;73.00;;;;;;5055419;28;20470;-45
2022/08/07 01:13:04;;;;;;;5.17;3.30;;;16.80;73.10;;;;;;5037609;28;20980;-45
2022/08/07 01:15:33;;;;;;;4.53;3.03;;;16.80;73.30;;;;;;5055200;28;20549;-45
2022/08/07 01:18:00;;;;;;;4.90;3.10;;;16.50;73.20;;;;;;5036108;28;21028;-46
2022/08/07 01:20:33;;;;;;;5.83;3.17;;;16.70;73.60;;;;;;5036141;28;20970;-46
2022/08/07 01:23:02;;;;;;;4.60;3.33;;;16.60;73.80;;;;;;5036346;28;20965;-47
2022/08/07 01:25:29;;;;;;;5.40;2.93;;;16.60;74.00;;;;;;5036871;28;20854;-45
2022/08/07 01:27:56;;;;;;;6.33;3.57;;;16.50;74.10;;;;;;5036651;28;20478;-46
2022/08/07 01:30:25;;;;;;;5.87;3.57;;;16.40;74.10;;;;;;5035585;28;20577;-45
2022/08/07 01:32:53;;;;;;;6.50;3.27;;;16.40;74.30;;;;;;5035679;28;20485;-45
2022/08/07 01:35:21;;;;;;;4.30;3.20;;;16.60;74.60;;;;;;5035874;28;20544;-45
2022/08/07 01:37:48;;;;;;;4.33;3.43;;;16.50;74.60;;;;;;5035854;28;20863;-45
2022/08/07 01:40:20;;;;;;;4.00;3.60;;;16.50;74.80;;;;;;5035413;28;20481;-45
2022/08/07 01:42:54;;;;;;;4.23;3.00;;;16.50;75.00;;;;;;5035825;28;20966;-45
2022/08/07 01:45:21;;;;;;;4.30;3.30;;;16.50;75.00;;;;;;5035791;28;20438;-46
2022/08/07 01:47:51;;;;;;;5.87;3.00;;;16.60;75.10;;;;;;5035605;28;20473;-47
2022/08/07 01:50:21;;;;;;;6.97;3.70;;;16.60;75.30;;;;;;5035176;28;21058;-45
2022/08/07 01:52:52;;;;;;;4.33;3.30;;;16.40;75.00;;;;;;5035626;28;20489;-46
2022/08/07 01:55:23;;;;;;;5.07;3.37;;;16.50;75.20;;;;;;5035383;28;20451;-45
2022/08/07 01:57:55;;;;;;;4.97;3.33;;;16.40;75.50;;;;;;5035574;28;20451;-45
2022/08/07 02:00:22;;;;;;;5.10;3.60;;;16.40;75.80;;;;;;5035047;28;20485;-45
2022/08/07 02:02:54;;;;;;;7.53;3.80;;;16.40;76.00;;;;;;5035197;28;20438;-45
2022/08/07 02:05:26;;;;;;;4.63;3.40;;;16.30;75.90;;;;;;5035210;28;20482;-45
2022/08/07 02:07:56;;;;;;;4.90;3.57;;;16.30;76.50;;;;;;5035304;28;20966;-45
2022/08/07 02:10:34;;;;;;;4.63;3.27;;;16.30;76.40;;;;;;5034490;28;20920;-45
2022/08/07 02:13:04;;;;;;;6.10;3.80;;;16.20;76.40;;;;;;5036966;28;20446;-46
2022/08/07 02:15:37;;;;;;;6.80;3.67;;;16.20;76.50;;;;;;5037180;28;20498;-47
2022/08/07 02:18:06;;;;;;;5.47;3.27;;;16.20;77.00;;;;;;5036979;28;20554;-47
2022/08/07 02:20:33;;;;;;;4.00;3.50;;;16.20;77.00;;;;;;5052957;28;20966;-47
2022/08/07 02:23:03;;;;;;;4.00;3.20;;;16.10;77.10;;;;;;5035217;28;20481;-46
2022/08/07 02:25:31;;;;;;;3.07;2.67;;;16.10;77.20;;;;;;5035136;28;20469;-46
2022/08/07 02:28:02;;;;;;;4.43;3.10;;;16.10;77.20;;;;;;5034752;28;20451;-46
2022/08/07 02:30:30;;;;;;;4.50;2.90;;;16.10;77.50;;;;;;5034588;28;20979;-46
2022/08/07 02:32:58;;;;;;;4.43;3.30;;;16.00;77.50;;;;;;5052713;28;20431;-47
2022/08/07 02:35:44;;;;;;;7.37;3.90;;;15.80;77.30;;;;;;5034885;28;20451;-45
2022/08/07 02:38:15;;;;;;;4.13;2.70;;;16.00;77.90;;;;;;5035017;28;20874;-46
2022/08/07 02:40:43;;;;;;;4.10;2.97;;;16.00;78.10;;;;;;5034090;28;20528;-47
2022/08/07 02:43:13;;;;;;;4.40;3.37;;;15.90;78.00;;;;;;5034635;28;20471;-47
2022/08/07 02:45:43;;;;;;;5.17;3.30;;;15.80;78.20;;;;;;5034442;28;20447;-46
2022/08/07 02:48:10;;;;;;;4.70;2.93;;;15.90;78.50;;;;;;5034405;28;20553;-46
2022/08/07 02:50:42;;;;;;;8.23;3.83;;;15.90;78.60;;;;;;5034223;28;20839;-46
2022/08/07 02:53:12;;;;;;;5.97;3.70;;;15.90;78.90;;;;;;5052211;28;20427;-46
2022/08/07 02:55:45;;;;;;;9.43;3.60;;;15.80;78.80;;;;;;5052306;28;20848;-46
2022/08/07 02:58:17;;;;;;;6.33;3.40;;;15.80;78.90;;;;;;5034266;28;20454;-47
2022/08/07 03:00:44;;;;;;;4.23;3.00;;;15.80;78.90;;;;;;5033844;28;20482;-46
2022/08/07 03:03:12;;;;;;;5.80;3.57;;;15.80;79.20;;;;;;5034054;28;20485;-46
2022/08/07 03:05:43;;;;;;;4.50;3.43;;;15.70;79.40;;;;;;5034374;28;20458;-46
2022/08/07 03:08:11;;;;;;;6.97;3.90;;;15.90;79.80;;;;;;5034325;28;20450;-46
2022/08/07 03:10:44;;;;;;;4.30;3.33;;;15.70;79.90;;;;;;5033599;28;20475;-46
2022/08/07 03:13:14;;;;;;;4.30;3.03;;;15.60;79.80;;;;;;5034014;28;20462;-46
2022/08/07 03:15:41;;;;;;;4.67;3.20;;;15.40;79.80;;;;;;5051946;28;20409;-46
2022/08/07 03:18:08;;;;;;;3.30;3.00;;;15.70;80.20;;;;;;5033791;28;20447;-45
2022/08/07 03:20:36;;;;;;;4.40;3.50;;;15.60;80.20;;;;;;5033487;28;20478;-45
2022/08/07 03:23:04;;;;;;;6.70;3.23;;;15.40;80.00;;;;;;5051860;28;20493;-45
2022/08/07 03:25:33;;;;;;;4.50;3.07;;;15.60;80.30;;;;;;5051613;28;20837;-46
2022/08/07 03:28:02;;;;;;;7.07;3.37;;;15.60;80.40;;;;;;5051769;28;20479;-46
2022/08/07 03:30:31;;;;;;;3.43;2.93;;;15.50;80.30;;;;;;5033564;28;20562;-46
2022/08/07 03:33:00;;;;;;;4.70;3.23;;;15.70;80.60;;;;;;5033770;28;20451;-45
2022/08/07 03:35:31;;;;;;;4.30;3.00;;;15.60;80.60;;;;;;5033928;28;20852;-46
2022/08/07 03:38:02;;;;;;;4.30;3.83;;;15.60;80.90;;;;;;5033767;28;20957;-45
2022/08/07 03:40:32;;;;;;;5.53;3.13;;;15.60;81.00;;;;;;5033369;28;20466;-46
2022/08/07 03:43:01;;;;;;;4.73;3.60;;;15.60;81.50;;;;;;5033981;28;20477;-45
2022/08/07 03:45:32;;;;;;;9.30;3.67;;;15.50;81.20;;;;;;5034048;28;20442;-46
2022/08/07 03:48:07;;;;;;;4.57;3.13;;;15.50;81.30;;;;;;5033998;28;20550;-46
2022/08/07 03:50:35;;;;;;;7.43;3.50;;;15.50;81.40;;;;;;5054837;28;20469;-46
2022/08/07 03:53:03;;;;;;;4.70;3.07;;;15.50;81.60;;;;;;5037917;28;20461;-46
2022/08/07 03:55:31;;;;;;;7.03;3.73;;;15.40;81.60;;;;;;5037733;28;21009;-47
2022/08/07 03:57:59;;;;;;;4.00;3.60;;;15.50;81.70;;;;;;5037690;28;20516;-46
2022/08/07 04:00:33;;;;;;;5.10;3.23;;;15.40;81.80;;;;;;5037476;28;21000;-46
2022/08/07 04:03:01;;;;;;;5.07;3.20;;;15.50;82.10;;;;;;5055303;28;20434;-47
2022/08/07 04:05:34;;;;;;;4.13;3.57;;;15.40;82.10;;;;;;5037757;28;20500;-46
2022/08/07 04:08:03;;;;;;;4.33;3.20;;;15.40;82.30;;;;;;5037942;28;20548;-46
2022/08/07 04:10:30;;;;;;;4.77;3.63;;;15.40;82.50;;;;;;5060885;22;20496;-51
2022/08/07 04:12:57;;;;;;;6.33;3.60;;;15.40;82.50;;;;;;5053575;28;20453;-50
2022/08/07 04:15:24;;;;;;;9.90;4.40;;;15.40;82.50;;;;;;5053240;28;20974;-50
2022/08/07 04:17:54;;;;;;;5.93;3.10;;;15.40;82.80;;;;;;5053101;28;20989;-50
2022/08/07 04:20:22;;;;;;;8.70;3.40;;;15.10;82.60;;;;;;5052891;28;20462;-50
2022/08/07 04:22:49;;;;;;;3.90;3.30;;;15.90;83.50;;;;;;5053253;28;20501;-50
2022/08/07 04:25:18;;;;;;;5.37;3.30;;;15.00;82.30;;;;;;5053170;28;20985;-50
2022/08/07 04:27:45;;;;;;;4.90;3.07;;;15.40;82.90;;;;;;5053264;28;20451;-49
2022/08/07 04:30:13;;;;;;;4.27;3.20;;;15.50;82.80;;;;;;5052700;28;20977;-50
2022/08/07 04:32:55;;;;;;;3.97;2.90;;;15.70;82.70;;;;;;5053341;28;20529;-50
2022/08/07 04:35:23;;;;;;;7.20;2.43;;;16.10;82.70;;;;;;5053167;28;20449;-51
2022/08/07 04:37:51;;;;;;;5.47;3.07;;;16.20;82.40;;;;;;5052968;28;20478;-50
2022/08/07 04:40:23;;;;;;;4.40;2.70;;;16.10;81.70;;;;;;5052700;28;20446;-50
2022/08/07 04:42:51;;;;;;;3.43;2.93;;;16.20;82.00;;;;;;5052804;28;20557;-50
2022/08/07 04:45:18;;;;;;;4.20;2.97;;;16.20;80.50;;;;;;5052774;28;20448;-50
2022/08/07 04:47:55;;;;;;;5.00;2.80;;;16.50;80.00;;;;;;5052540;28;20470;-50
2022/08/07 04:50:30;;;;;;;4.27;3.03;;;16.50;79.50;;;;;;5052322;28;21080;-50
2022/08/07 04:53:20;;;;;;;4.23;3.07;;;16.80;79.10;;;;;;5052495;28;20457;-50
2022/08/07 04:55:53;;;;;;;4.20;2.73;;;16.90;78.70;;;;;;5052553;28;20520;-51
2022/08/07 04:58:28;;;;;;;4.47;3.03;;;17.10;78.40;;;;;;5052501;28;20570;-50
2022/08/07 05:00:59;;;;;;;4.30;3.63;;;17.20;78.00;;;;;;5051109;28;20466;-51
2022/08/07 05:03:30;;;;;;;6.23;3.07;;;17.20;77.40;;;;;;5052573;28;20456;-50
2022/08/07 05:06:06;;;;;;;5.80;2.87;;;17.60;77.20;;;;;;5053720;28;20431;-51
2022/08/07 05:08:41;;;;;;;6.93;3.20;;;17.50;76.40;;;;;;5051941;28;20568;-50
2022/08/07 05:11:12;;;;;;;4.07;3.07;;;17.30;75.70;;;;;;5052186;28;21084;-50
2022/08/07 05:13:52;;;;;;;7.77;3.30;;;17.60;75.80;;;;;;5052364;28;20450;-51
2022/08/07 05:16:40;;;;;;;5.60;3.50;;;17.60;75.40;;;;;;5052150;28;20483;-50
2022/08/07 05:19:11;;;;;;;4.70;2.63;;;17.80;74.80;;;;;;5051820;28;20505;-50
2022/08/07 05:21:46;;;;;;;4.73;3.10;;;18.40;75.40;;;;;;5053353;28;20482;-50
2022/08/07 05:24:16;;;;;;;3.50;2.87;;;18.00;74.60;;;;;;5051985;28;20541;-50
2022/08/07 05:26:44;;;;;;;4.90;2.90;;;18.10;74.40;;;;;;5052022;28;20442;-50
2022/08/07 05:29:13;;;;;;;4.60;2.93;;;18.50;74.40;;;;;;5051549;28;20448;-50
2022/08/07 05:31:42;;;;;;;6.93;3.20;;;18.20;73.80;;;;;;5051908;28;20598;-50
2022/08/07 05:34:14;;;;;;;3.20;2.50;;;18.40;73.60;;;;;;5051945;28;20805;-50
2022/08/07 05:36:47;;;;;;;4.43;3.07;;;18.50;73.50;;;;;;5052002;28;20522;-50
2022/08/07 05:39:22;;;;;;;5.07;2.70;;;18.60;73.00;;;;;;5051638;28;20505;-50
2022/08/07 05:41:53;;;;;;;3.47;2.53;;;18.80;72.60;;;;;;5051754;28;20472;-50
2022/08/07 05:44:21;;;;;;;5.50;2.53;;;18.90;72.10;;;;;;5051915;28;20455;-51
2022/08/07 05:46:50;;;;;;;4.47;2.20;;;19.00;71.40;;;;;;5051578;28;20445;-51
2022/08/07 05:49:22;;;;;;;7.70;2.27;;;19.10;70.60;;;;;;5051233;28;20547;-51
2022/08/07 05:51:52;;;;;;;3.73;2.47;;;19.30;70.00;;;;;;5051381;28;20469;-51
2022/08/07 05:54:21;;;;;;;4.20;2.97;;;19.40;69.50;;;;;;5051393;28;20445;-50
2022/08/07 05:56:49;;;;;;;4.37;2.70;;;19.50;68.80;;;;;;5051420;28;20569;-51
2022/08/07 05:59:18;;;;;;;6.53;2.43;;;19.50;68.10;;;;;;5052334;28;20434;-51
2022/08/07 06:01:49;;;;;;;3.67;2.17;;;19.70;67.50;;;;;;5051071;28;20462;-51
2022/08/07 06:04:21;;;;;;;6.67;2.90;;;19.80;67.00;;;;;;5051415;28;20449;-51
2022/08/07 06:06:48;;;;;;;4.30;2.13;;;19.90;66.40;;;;;;5051283;28;20461;-51
2022/08/07 06:09:18;;;;;;;3.63;2.30;;;20.00;66.00;;;;;;5050835;28;20453;-50
2022/08/07 06:11:48;;;;;;;8.73;2.80;;;20.00;65.50;;;;;;5050728;28;20482;-50
2022/08/07 06:14:17;;;;;;;6.70;3.00;;;20.10;65.10;;;;;;5051143;28;20446;-51
2022/08/07 06:16:47;;;;;;;10.13;2.27;;;20.20;64.80;;;;;;5051094;28;20785;-51
2022/08/07 06:19:16;;;;;;;2.90;1.60;;;20.30;64.40;;;;;;5052415;28;20435;-51
2022/08/07 06:21:43;;;;;;;5.20;2.53;;;20.40;64.00;;;;;;5051225;28;20474;-51
2022/08/07 06:24:12;;;;;;;5.33;2.70;;;20.50;63.70;;;;;;5050963;28;21103;-50
2022/08/07 06:26:41;;;;;;;4.50;3.10;;;20.50;63.40;;;;;;5050881;28;20537;-51
2022/08/07 06:29:08;;;;;;;5.33;2.20;;;20.60;63.30;;;;;;5050454;28;20491;-50
2022/08/07 06:31:35;;;;;;;6.40;2.10;;;20.70;62.70;;;;;;5050569;28;21034;-50
2022/08/07 06:34:02;;;;;;;3.27;2.33;;;20.70;62.20;;;;;;5051932;28;20484;-49
2022/08/07 06:36:29;;;;;;;3.00;2.30;;;20.70;62.00;;;;;;5050550;28;20450;-50
2022/08/07 06:38:57;;;;;;;4.93;2.40;;;20.50;61.10;;;;;;5050201;28;20454;-50
2022/08/07 06:41:29;;;;;;;4.23;2.50;;;20.80;61.20;;;;;;5050427;28;20470;-51
2022/08/07 06:43:58;;;;;;;3.67;2.40;;;20.80;61.10;;;;;;5051826;28;20522;-50
2022/08/07 06:46:25;;;;;;;4.00;2.27;;;20.60;60.40;;;;;;5050460;28;20492;-50
2022/08/07 06:48:53;;;;;;;3.10;2.27;;;20.90;60.50;;;;;;5050186;28;20811;-50
2022/08/07 06:51:30;;;;;;;6.03;2.00;;;20.90;60.30;;;;;;5050169;28;20521;-50
2022/08/07 06:54:01;;;;;;;4.60;1.90;;;21.00;61.00;;;;;;5050256;28;20557;-50
2022/08/07 06:56:39;;;;;;;6.10;2.10;;;20.90;59.30;;;;;;5050129;28;20578;-50
2022/08/07 06:59:15;;;;;;;5.53;2.50;;;21.30;60.30;;;;;;5050034;28;20504;-50
2022/08/07 07:01:48;;;;;;;4.00;2.70;;;21.00;59.70;;;;;;5050499;28;20470;-51
2022/08/07 07:04:16;;;;;;;2.83;2.10;;;21.00;60.40;;;;;;5049949;28;20454;-51
2022/08/07 07:06:44;;;;;;;4.57;2.33;;;21.00;59.30;;;;;;5049992;28;20967;-49
2022/08/07 07:09:19;;;;;;;4.30;1.80;;;21.00;59.10;;;;;;5051117;28;20488;-49
2022/08/07 07:11:53;;;;;;;6.13;2.53;;;21.10;58.80;;;;;;5051269;28;20480;-51
2022/08/07 07:14:24;;;;;;;3.80;1.93;;;21.00;58.80;;;;;;5050064;28;20504;-50
2022/08/07 07:16:54;;;;;;;2.30;1.60;;;21.10;58.60;;;;;;5050939;28;20442;-50
2022/08/07 07:19:26;;;;;;;6.80;2.53;;;21.10;58.60;;;;;;5051151;28;20434;-51
2022/08/07 07:21:54;;;;;;;4.10;2.07;;;20.90;58.50;;;;;;5050146;28;21042;-50
2022/08/07 07:24:21;;;;;;;3.23;2.30;;;21.10;58.50;;;;;;5050750;28;20579;-50
2022/08/07 07:26:49;;;;;;;5.40;1.93;;;20.90;58.20;;;;;;5051159;28;20435;-50
2022/08/07 07:29:17;;;;;;;4.33;2.13;;;21.10;58.40;;;;;;5050632;28;20459;-51
2022/08/07 07:31:50;;;;;;;5.63;2.40;;;21.10;58.40;;;;;;5050941;28;20459;-50
2022/08/07 07:34:21;;;;;;;3.70;2.30;;;21.10;58.30;;;;;;5051006;28;20510;-50
2022/08/07 07:36:50;;;;;;;6.33;2.13;;;21.10;57.90;;;;;;5051012;28;20507;-51
2022/08/07 07:39:18;;;;;;;4.83;2.00;;;21.00;57.90;;;;;;5050801;28;20522;-51
2022/08/07 07:41:49;;;;;;;5.10;2.13;;;21.20;58.10;;;;;;5051063;28;20452;-51
2022/08/07 07:44:16;;;;;;;6.27;2.20;;;21.20;57.80;;;;;;5051286;28;20440;-51
2022/08/07 07:46:46;;;;;;;2.53;1.87;;;21.00;57.50;;;;;;5051214;28;20440;-51
2022/08/07 07:49:16;;;;;;;5.87;1.83;;;21.20;57.70;;;;;;5049459;28;20467;-51
2022/08/07 07:51:45;;;;;;;4.20;1.90;;;21.30;57.60;;;;;;5051132;28;20577;-51
2022/08/07 07:54:14;;;;;;;2.67;2.00;;;21.20;57.50;;;;;;5051549;28;20484;-50
2022/08/07 07:56:42;;;;;;;3.13;1.67;;;21.20;57.70;;;;;;5050757;28;20443;-51
2022/08/07 07:59:11;;;;;;;2.90;1.70;;;21.20;57.80;;;;;;5050299;28;20478;-50
2022/08/07 08:01:42;;;;;;;3.73;1.70;;;21.00;57.60;;;;;;5050763;28;20982;-50
2022/08/07 08:04:11;;;;;;;2.73;1.50;;;21.30;57.90;;;;;;5050894;28;20447;-51
2022/08/07 08:06:39;;;;;;;3.80;1.87;;;21.40;57.80;;;;;;5050744;28;20473;-50
2022/08/07 08:09:08;;;;;;;3.10;1.60;;;21.20;57.50;;;;;;5050195;28;21010;-50
2022/08/07 08:11:35;;;;;;;4.77;1.57;;;21.30;57.20;;;;;;5050603;28;20468;-49
2022/08/07 08:14:02;;;;;;;4.20;1.87;;;21.40;57.60;;;;;;5051023;28;21035;-51
2022/08/07 08:16:33;;;;;;;5.93;1.70;;;21.20;57.20;;;;;;5050779;28;20779;-50
2022/08/07 08:19:02;;;;;;;2.43;1.50;;;21.40;57.30;;;;;;5050491;28;20999;-50
2022/08/07 08:27:08;;;;;;;2.40;1.60;;;21.40;57.30;;;;;;5050455;28;20477;-50
2022/08/07 08:29:40;;;;;;;5.23;1.80;;;21.40;57.20;;;;;;5050248;28;20440;-50
2022/08/07 08:32:08;;;;;;;5.70;2.50;;;21.50;57.30;;;;;;5050438;28;20449;-50
2022/08/07 08:34:37;;;;;;;3.10;1.60;;;21.70;57.40;;;;;;5050813;28;20765;-50
2022/08/07 08:37:08;;;;;;;2.83;1.80;;;21.50;57.00;;;;;;5054254;28;20797;-50
2022/08/07 08:39:36;;;;;;;4.83;2.00;;;21.50;57.40;;;;;;5052457;28;20468;-50
2022/08/07 08:42:05;;;;;;;3.77;2.40;;;21.50;56.90;;;;;;5052584;28;20464;-50
2022/08/07 08:44:39;;;;;;;4.77;1.83;;;21.60;56.60;;;;;;5053916;28;20440;-51
2022/08/07 08:47:08;;;;;;;4.13;2.90;;;21.70;56.50;;;;;;5053896;28;20436;-50
2022/08/07 08:49:44;;;;;;;3.53;1.83;;;21.70;56.20;;;;;;5053649;28;20452;-50
2022/08/07 08:52:24;;;;;;;2.63;2.10;;;21.80;55.80;;;;;;5053680;28;20463;-50
2022/08/07 08:54:56;;;;;;;2.97;1.90;;;22.00;55.40;;;;;;5053724;28;20448;-51
2022/08/07 08:57:29;;;;;;;2.57;1.90;;;21.80;55.20;;;;;;5053767;28;20432;-51
2022/08/07 09:00:01;;;;;;;3.03;2.03;;;21.50;54.80;;;;;;5053321;28;20893;-50
2022/08/07 09:02:40;;;;;;;4.57;2.10;;;22.30;55.20;;;;;;5053643;28;20464;-51
2022/08/07 09:05:19;;;;;;;2.70;1.77;;;22.10;54.60;;;;;;5052244;28;20503;-50
2022/08/07 09:07:55;;;;;;;5.83;1.67;;;22.20;54.50;;;;;;5053571;28;20437;-50
2022/08/07 09:10:26;;;;;;;5.03;2.47;;;22.30;54.20;;;;;;5053278;28;20465;-51
2022/08/07 09:13:14;;;;;;;4.20;2.53;;;21.90;53.80;;;;;;5053342;28;20445;-50
2022/08/07 09:15:50;;;;;;;2.20;1.50;;;22.30;53.80;;;;;;5053283;28;20449;-50
2022/08/07 09:18:26;;;;;;;2.87;1.80;;;22.40;53.90;;;;;;5053289;28;20977;-50
2022/08/07 09:21:03;;;;;;;5.10;2.10;;;22.70;54.10;;;;;;5052808;28;20445;-50
2022/08/07 09:23:41;;;;;;;2.97;1.70;;;22.60;53.60;;;;;;5053362;28;20792;-50
2022/08/07 09:26:18;;;;;;;4.27;2.10;;;22.60;53.40;;;;;;5053086;28;20433;-50
2022/08/07 09:28:52;;;;;;;3.47;1.77;;;22.60;53.30;;;;;;5052828;28;20438;-50
2022/08/07 09:31:25;;;;;;;3.60;1.87;;;22.70;53.50;;;;;;5052718;28;20500;-50
2022/08/07 09:34:06;;;;;;;4.50;1.80;;;22.70;53.30;;;;;;5052570;28;20517;-51
2022/08/07 09:36:36;;;;;;;2.10;1.60;;;22.70;53.20;;;;;;5052753;28;20438;-50
2022/08/07 09:39:23;;;;;;;3.10;1.50;;;22.70;53.10;;;;;;5052289;28;20485;-51
2022/08/07 09:42:01;;;;;;;2.60;1.70;;;22.90;52.90;;;;;;5052206;28;20452;-52
2022/08/07 09:44:40;;;;;;;3.07;1.70;;;22.90;52.80;;;;;;5052933;28;20437;-50
2022/08/07 09:47:15;;;;;;;3.87;2.03;;;22.90;52.90;;;;;;5052129;28;20438;-51
2022/08/07 09:49:52;;;;;;;2.00;1.60;;;23.00;52.80;;;;;;5052444;28;20438;-52
2022/08/07 09:52:26;;;;;;;3.50;1.90;;;23.00;52.70;;;;;;5052672;28;20454;-52
2022/08/07 09:55:04;;;;;;;1.60;1.23;;;23.00;52.60;;;;;;5052504;28;20457;-50
2022/08/07 09:58:09;;;;;;;6.43;2.20;;;23.00;52.20;;;;;;5052411;28;20806;-50
2022/08/07 10:00:50;;;;;;;3.60;1.90;;;23.00;51.90;;;;;;5051759;28;20449;-51
2022/08/07 10:03:36;;;;;;;2.50;1.30;;;23.00;51.90;;;;;;5052389;28;20968;-50
2022/08/07 10:06:46;;;;;;;1.70;1.40;;;23.40;52.00;;;;;;5052468;28;20464;-51
2022/08/07 10:09:41;;;;;;;2.80;1.80;;;22.90;51.40;;;;;;5050184;28;20500;-50
2022/08/07 10:12:20;;;;;;;5.23;1.97;;;22.90;51.50;;;;;;5091189;22;20509;-47
2022/08/07 10:15:10;;;;;;;1.63;1.23;;;22.90;51.00;;;;;;5072936;28;20471;-46
2022/08/07 10:18:07;;;;;;;3.10;1.50;;;22.80;50.10;;;;;;5072916;28;20444;-46
2022/08/07 10:20:43;;;;;;;3.00;1.60;;;23.00;49.50;;;;;;5072432;28;20445;-47
2022/08/07 10:23:40;;;;;;;3.10;1.40;;;22.90;49.80;;;;;;5073022;28;20809;-47
2022/08/07 10:26:23;;;;;;;2.50;1.60;;;23.00;49.60;;;;;;5072800;28;20431;-46
2022/08/07 10:29:06;;;;;;;4.00;2.40;;;23.00;49.80;;;;;;5072427;28;20426;-46
2022/08/07 10:31:56;;;;;;;2.50;1.60;;;23.00;50.00;;;;;;5072826;28;20552;-47
2022/08/07 10:34:54;;;;;;;5.13;1.70;;;23.10;49.80;;;;;;5072472;28;20938;-46
2022/08/07 10:37:35;;;;;;;3.90;2.30;;;23.10;49.70;;;;;;5072892;28;20516;-46
2022/08/07 10:40:08;;;;;;;4.40;1.53;;;23.40;50.20;;;;;;5072091;28;20495;-47
2022/08/07 10:42:39;;;;;;;4.10;1.60;;;23.20;50.30;;;;;;5071133;28;20969;-48
2022/08/07 10:45:17;;;;;;;2.43;1.77;;;23.30;50.50;;;;;;5072575;28;20437;-45
2022/08/07 10:47:50;;;;;;;4.00;1.90;;;23.30;50.30;;;;;;5072357;28;20433;-46
2022/08/07 10:50:22;;;;;;;2.80;1.50;;;23.40;50.10;;;;;;5071764;28;21006;-46
2022/08/07 10:52:58;;;;;;;3.50;1.50;;;23.40;49.80;;;;;;5072428;28;20464;-46
2022/08/07 10:55:30;;;;;;;6.83;1.80;;;23.50;49.50;;;;;;5072442;28;20448;-45
2022/08/07 10:58:05;;;;;;;4.10;1.50;;;23.60;49.20;;;;;;5072349;28;20509;-45
2022/08/07 11:00:43;;;;;;;4.83;1.63;;;23.60;49.00;;;;;;5071854;28;20802;-45
2022/08/07 11:03:16;;;;;;;4.17;1.97;;;23.70;48.90;;;;;;5072648;28;20434;-45
2022/08/07 11:05:49;;;;;;;7.53;2.70;;;23.90;49.00;;;;;;5072301;28;20546;-46
2022/08/07 11:08:25;;;;;;;2.60;1.80;;;23.90;48.70;;;;;;5072240;28;20773;-46
2022/08/07 11:10:58;;;;;;;3.70;2.43;;;24.00;48.60;;;;;;5071999;28;20464;-46
2022/08/07 11:13:32;;;;;;;2.57;1.47;;;24.10;48.50;;;;;;5072003;28;20992;-46
2022/08/07 11:16:08;;;;;;;2.97;1.80;;;24.10;48.30;;;;;;5071744;28;20432;-46
2022/08/07 11:18:39;;;;;;;3.60;1.57;;;24.20;48.10;;;;;;5071457;28;20960;-46
2022/08/07 11:21:11;;;;;;;4.20;2.33;;;24.20;47.80;;;;;;5072048;28;20456;-47
2022/08/07 11:23:47;;;;;;;4.53;1.60;;;24.20;47.20;;;;;;5072187;28;20440;-47
2022/08/07 11:26:20;;;;;;;1.97;1.27;;;24.30;47.30;;;;;;5071774;28;20482;-47
2022/08/07 11:28:52;;;;;;;2.80;1.47;;;24.30;47.20;;;;;;5071735;28;20460;-47
2022/08/07 11:31:26;;;;;;;5.80;2.10;;;24.30;47.10;;;;;;5071917;28;20459;-46
2022/08/07 11:33:57;;;;;;;3.17;1.57;;;24.50;47.60;;;;;;5071837;28;20455;-46
2022/08/07 11:36:40;;;;;;;3.17;1.50;;;24.50;46.90;;;;;;5071427;28;20523;-46
2022/08/07 11:39:16;;;;;;;2.33;1.40;;;24.60;46.50;;;;;;5071087;28;20483;-47
2022/08/07 11:41:54;;;;;;;4.30;1.70;;;24.50;47.30;;;;;;5071532;28;20486;-46
2022/08/07 11:44:30;;;;;;;2.80;1.87;;;24.30;47.60;;;;;;5071745;28;20432;-47
2022/08/07 11:47:09;;;;;;;3.40;2.50;;;24.20;47.80;;;;;;5071437;28;20932;-46
2022/08/07 11:49:56;;;;;;;5.30;3.50;;;24.00;48.10;;;;;;5071130;28;20436;-46
2022/08/07 11:52:42;;;;;;;3.30;1.80;;;24.00;48.30;;;;;;5071526;28;20470;-46
2022/08/07 11:55:18;;;;;;;3.63;2.00;;;23.90;48.40;;;;;;5071295;28;20446;-46
2022/08/07 11:57:53;;;;;;;3.03;2.10;;;23.80;48.40;;;;;;5071835;28;20439;-46
2022/08/07 12:00:31;;;;;;;3.03;1.60;;;23.70;48.50;;;;;;5071266;28;20484;-46
2022/08/07 12:03:31;;;;;;;4.00;1.53;;;23.70;48.50;;;;;;5071695;28;20463;-47
2022/08/07 12:06:12;;;;;;;4.53;2.67;;;23.70;48.50;;;;;;5071472;28;20958;-45
2022/08/07 12:08:47;;;;;;;2.50;1.63;;;23.70;48.50;;;;;;5071085;28;20428;-46
2022/08/07 12:11:19;;;;;;;2.07;1.87;;;23.70;48.30;;;;;;5074742;28;20560;-46
2022/08/07 12:13:57;;;;;;;2.10;1.43;;;23.70;48.10;;;;;;5075621;28;20432;-45
2022/08/07 12:16:28;;;;;;;4.03;1.87;;;23.80;48.00;;;;;;5075593;28;20438;-46
2022/08/07 12:19:06;;;;;;;3.53;1.83;;;23.90;47.90;;;;;;5074969;28;20474;-46
2022/08/07 12:21:40;;;;;;;2.00;1.57;;;23.90;47.90;;;;;;5075425;28;20447;-46
2022/08/07 12:24:12;;;;;;;2.60;1.67;;;24.00;48.00;;;;;;5075819;28;20441;-47
2022/08/07 12:26:44;;;;;;;2.57;1.60;;;24.00;48.00;;;;;;5075319;28;20431;-46
2022/08/07 12:29:17;;;;;;;3.87;1.97;;;24.00;47.90;;;;;;5074869;28;20440;-46
2022/08/07 12:31:49;;;;;;;2.40;1.83;;;24.10;47.90;;;;;;5075170;28;20461;-46
2022/08/07 12:34:19;;;;;;;7.27;1.30;;;24.10;47.70;;;;;;5074996;28;20516;-46
2022/08/07 12:36:46;;;;;;;5.50;1.90;;;24.00;47.50;;;;;;5074924;28;20427;-46
2022/08/07 12:39:15;;;;;;;2.53;1.30;;;24.10;47.60;;;;;;5074356;28;20475;-46
2022/08/07 12:41:42;;;;;;;2.93;1.87;;;24.10;47.40;;;;;;5074512;28;20987;-46
2022/08/07 12:44:11;;;;;;;2.90;1.67;;;24.10;47.40;;;;;;5074439;28;20507;-47
2022/08/07 12:46:54;;;;;;;4.17;2.13;;;24.00;47.20;;;;;;5074395;28;20443;-46
2022/08/07 12:49:30;;;;;;;2.30;1.60;;;24.20;47.20;;;;;;5074280;28;20451;-46
2022/08/07 12:52:04;;;;;;;2.00;1.67;;;24.10;47.00;;;;;;5074684;28;20455;-46
2022/08/07 12:54:39;;;;;;;2.30;1.80;;;24.20;47.00;;;;;;5074104;28;20460;-45
2022/08/07 12:57:07;;;;;;;2.47;1.60;;;24.20;47.20;;;;;;5073008;28;20462;-46
2022/08/07 12:59:36;;;;;;;2.17;1.70;;;23.90;47.20;;;;;;5073903;28;20976;-46
2022/08/07 13:02:17;;;;;;;3.40;1.43;;;24.10;47.10;;;;;;5074344;28;20449;-46
2022/08/07 13:05:05;;;;;;;2.67;1.70;;;23.90;47.00;;;;;;5073862;28;20441;-47
2022/08/07 13:07:53;;;;;;;2.33;1.30;;;24.00;47.10;;;;;;5074162;28;20453;-47
2022/08/07 13:10:31;;;;;;;3.50;1.70;;;24.00;47.60;;;;;;5074009;28;20443;-46
2022/08/07 13:13:13;;;;;;;2.93;1.80;;;23.90;47.60;;;;;;5073956;28;20474;-47
2022/08/07 13:15:52;;;;;;;1.93;1.53;;;23.80;47.40;;;;;;5073542;28;20429;-46
2022/08/07 13:18:31;;;;;;;3.93;1.77;;;23.80;47.50;;;;;;5074075;28;20466;-46
2022/08/07 13:21:06;;;;;;;8.77;1.87;;;23.70;47.40;;;;;;5072008;28;20467;-47